sensor_id;sensor_type;location;lat;lon;timestamp;P1;durP1;ratioP1;P2;durP2;ratioP2
24547;SDS011;12713;51.624;4.924;2022-09-03T00:00:27;3.40;;;2.45;;
24547;SDS011;12713;51.624;4.924;2022-09-03T00:05:42;7.35;;;3.40;;
24547;SDS011;12713;51.624;4.924;2022-09-03T00:08:15;5.80;;;2.67;;
24547;SDS011;12713;51.624;4.924;2022-09-03T00:10:50;6.22;;;2.53;;
24547;SDS011;12713;51.624;4.924;2022-09-03T00:13:21;5.38;;;2.67;;
24547;SDS011;12713;51.624;4.924;2022-09-03T00:15:48;5.25;;;2.55;;
24547;SDS011;12713;51.624;4.924;2022-09-03T00:18:16;5.40;;;2.72;;
24547;SDS011;12713;51.624;4.924;2022-09-03T00:20:45;3.65;;;2.88;;
24547;SDS011;12713;51.624;4.924;2022-09-03T00:23:22;8.82;;;2.70;;
24547;SDS011;12713;51.624;4.924;2022-09-03T00:25:51;5.72;;;2.53;;
24547;SDS011;12713;51.624;4.924;2022-09-03T00:28:23;6.95;;;2.55;;
24547;SDS011;12713;51.624;4.924;2022-09-03T00:30:55;6.15;;;3.17;;
24547;SDS011;12713;51.624;4.924;2022-09-03T00:33:23;6.70;;;3.35;;
24547;SDS011;12713;51.624;4.924;2022-09-03T00:38:28;7.53;;;3.03;;
24547;SDS011;12713;51.624;4.924;2022-09-03T00:41:01;8.20;;;2.90;;
24547;SDS011;12713;51.624;4.924;2022-09-03T00:48:32;4.72;;;2.97;;
24547;SDS011;12713;51.624;4.924;2022-09-03T00:56:35;6.18;;;2.75;;
24547;SDS011;12713;51.624;4.924;2022-09-03T01:02:05;4.88;;;3.28;;
24547;SDS011;12713;51.624;4.924;2022-09-03T01:04:41;5.88;;;3.10;;
24547;SDS011;12713;51.624;4.924;2022-09-03T01:12:17;8.02;;;3.25;;
24547;SDS011;12713;51.624;4.924;2022-09-03T01:23:01;8.65;;;3.35;;
24547;SDS011;12713;51.624;4.924;2022-09-03T01:31:30;7.13;;;2.95;;
24547;SDS011;12713;51.624;4.924;2022-09-03T01:33:55;5.55;;;2.70;;
24547;SDS011;12713;51.624;4.924;2022-09-03T01:38:59;11.95;;;3.60;;
24547;SDS011;12713;51.624;4.924;2022-09-03T01:46:49;6.05;;;3.40;;
24547;SDS011;12713;51.624;4.924;2022-09-03T01:49:25;5.53;;;2.90;;
24547;SDS011;12713;51.624;4.924;2022-09-03T01:51:55;9.13;;;3.60;;
24547;SDS011;12713;51.624;4.924;2022-09-03T01:59:47;18.55;;;4.03;;
24547;SDS011;12713;51.624;4.924;2022-09-03T02:02:19;7.57;;;3.33;;
24547;SDS011;12713;51.624;4.924;2022-09-03T02:07:38;5.47;;;3.47;;
24547;SDS011;12713;51.624;4.924;2022-09-03T02:10:06;5.55;;;3.05;;
24547;SDS011;12713;51.624;4.924;2022-09-03T02:12:32;7.82;;;3.60;;
24547;SDS011;12713;51.624;4.924;2022-09-03T02:15:03;6.57;;;3.17;;
24547;SDS011;12713;51.624;4.924;2022-09-03T02:17:30;6.32;;;3.55;;
24547;SDS011;12713;51.624;4.924;2022-09-03T02:19:57;8.52;;;3.58;;
24547;SDS011;12713;51.624;4.924;2022-09-03T02:22:23;10.23;;;4.10;;
24547;SDS011;12713;51.624;4.924;2022-09-03T02:24:50;11.48;;;4.03;;
24547;SDS011;12713;51.624;4.924;2022-09-03T02:27:16;8.52;;;3.30;;
24547;SDS011;12713;51.624;4.924;2022-09-03T02:29:42;8.85;;;4.32;;
24547;SDS011;12713;51.624;4.924;2022-09-03T02:32:09;13.40;;;3.35;;
24547;SDS011;12713;51.624;4.924;2022-09-03T02:34:38;8.30;;;3.70;;
24547;SDS011;12713;51.624;4.924;2022-09-03T02:37:11;7.80;;;3.33;;
24547;SDS011;12713;51.624;4.924;2022-09-03T02:39:37;5.80;;;3.65;;
24547;SDS011;12713;51.624;4.924;2022-09-03T02:42:03;11.07;;;4.15;;
24547;SDS011;12713;51.624;4.924;2022-09-03T02:44:32;8.18;;;4.07;;
24547;SDS011;12713;51.624;4.924;2022-09-03T02:47:01;10.80;;;4.85;;
24547;SDS011;12713;51.624;4.924;2022-09-03T02:49:28;9.48;;;3.95;;
24547;SDS011;12713;51.624;4.924;2022-09-03T02:52:12;8.07;;;3.90;;
24547;SDS011;12713;51.624;4.924;2022-09-03T02:54:38;7.40;;;4.20;;
24547;SDS011;12713;51.624;4.924;2022-09-03T02:57:06;7.15;;;4.45;;
24547;SDS011;12713;51.624;4.924;2022-09-03T02:59:32;6.55;;;3.60;;
24547;SDS011;12713;51.624;4.924;2022-09-03T03:01:58;6.65;;;4.22;;
24547;SDS011;12713;51.624;4.924;2022-09-03T03:04:24;10.18;;;3.90;;
24547;SDS011;12713;51.624;4.924;2022-09-03T03:06:50;6.95;;;3.70;;
24547;SDS011;12713;51.624;4.924;2022-09-03T03:09:16;7.70;;;4.35;;
24547;SDS011;12713;51.624;4.924;2022-09-03T03:11:43;6.88;;;4.75;;
24547;SDS011;12713;51.624;4.924;2022-09-03T03:14:09;7.40;;;3.67;;
24547;SDS011;12713;51.624;4.924;2022-09-03T03:16:35;6.75;;;3.78;;
24547;SDS011;12713;51.624;4.924;2022-09-03T03:19:01;11.30;;;4.40;;
24547;SDS011;12713;51.624;4.924;2022-09-03T03:21:27;7.00;;;4.10;;
24547;SDS011;12713;51.624;4.924;2022-09-03T03:23:54;9.80;;;5.63;;
24547;SDS011;12713;51.624;4.924;2022-09-03T03:26:20;5.47;;;3.88;;
24547;SDS011;12713;51.624;4.924;2022-09-03T03:28:48;9.35;;;4.80;;
24547;SDS011;12713;51.624;4.924;2022-09-03T03:31:16;7.65;;;4.75;;
24547;SDS011;12713;51.624;4.924;2022-09-03T03:33:42;7.05;;;4.07;;
24547;SDS011;12713;51.624;4.924;2022-09-03T03:36:12;7.22;;;4.68;;
24547;SDS011;12713;51.624;4.924;2022-09-03T03:38:39;6.10;;;3.97;;
24547;SDS011;12713;51.624;4.924;2022-09-03T03:41:07;6.93;;;4.00;;
24547;SDS011;12713;51.624;4.924;2022-09-03T03:43:33;6.15;;;4.10;;
24547;SDS011;12713;51.624;4.924;2022-09-03T03:45:59;9.55;;;4.55;;
24547;SDS011;12713;51.624;4.924;2022-09-03T03:48:25;9.77;;;4.22;;
24547;SDS011;12713;51.624;4.924;2022-09-03T03:50:51;9.07;;;4.65;;
24547;SDS011;12713;51.624;4.924;2022-09-03T03:53:18;10.57;;;5.10;;
24547;SDS011;12713;51.624;4.924;2022-09-03T03:55:53;8.77;;;5.22;;
24547;SDS011;12713;51.624;4.924;2022-09-03T03:58:19;8.15;;;4.35;;
24547;SDS011;12713;51.624;4.924;2022-09-03T04:00:45;8.50;;;4.50;;
24547;SDS011;12713;51.624;4.924;2022-09-03T04:03:13;9.18;;;5.50;;
24547;SDS011;12713;51.624;4.924;2022-09-03T04:05:39;9.68;;;5.05;;
24547;SDS011;12713;51.624;4.924;2022-09-03T04:08:05;14.15;;;5.28;;
24547;SDS011;12713;51.624;4.924;2022-09-03T04:10:31;11.68;;;5.40;;
24547;SDS011;12713;51.624;4.924;2022-09-03T04:12:58;8.38;;;5.38;;
24547;SDS011;12713;51.624;4.924;2022-09-03T04:15:25;7.38;;;4.85;;
24547;SDS011;12713;51.624;4.924;2022-09-03T04:17:53;9.35;;;5.22;;
24547;SDS011;12713;51.624;4.924;2022-09-03T04:20:20;10.20;;;4.60;;
24547;SDS011;12713;51.624;4.924;2022-09-03T04:22:46;7.82;;;5.20;;
24547;SDS011;12713;51.624;4.924;2022-09-03T04:25:13;8.65;;;5.18;;
24547;SDS011;12713;51.624;4.924;2022-09-03T04:27:39;13.70;;;5.70;;
24547;SDS011;12713;51.624;4.924;2022-09-03T04:30:05;10.95;;;5.22;;
24547;SDS011;12713;51.624;4.924;2022-09-03T04:32:31;8.50;;;5.30;;
24547;SDS011;12713;51.624;4.924;2022-09-03T04:35:16;12.50;;;5.13;;
24547;SDS011;12713;51.624;4.924;2022-09-03T04:37:42;9.43;;;5.53;;
24547;SDS011;12713;51.624;4.924;2022-09-03T04:40:08;5.82;;;3.92;;
24547;SDS011;12713;51.624;4.924;2022-09-03T04:42:34;8.95;;;4.97;;
24547;SDS011;12713;51.624;4.924;2022-09-03T04:45:00;9.93;;;5.07;;
24547;SDS011;12713;51.624;4.924;2022-09-03T04:47:26;10.23;;;5.35;;
24547;SDS011;12713;51.624;4.924;2022-09-03T04:49:52;8.50;;;4.65;;
24547;SDS011;12713;51.624;4.924;2022-09-03T04:52:19;6.60;;;4.60;;
24547;SDS011;12713;51.624;4.924;2022-09-03T04:54:45;8.40;;;5.55;;
24547;SDS011;12713;51.624;4.924;2022-09-03T04:57:11;8.27;;;4.32;;
24547;SDS011;12713;51.624;4.924;2022-09-03T04:59:37;7.85;;;4.32;;
24547;SDS011;12713;51.624;4.924;2022-09-03T05:02:05;10.98;;;5.22;;
24547;SDS011;12713;51.624;4.924;2022-09-03T05:04:31;12.82;;;4.20;;
24547;SDS011;12713;51.624;4.924;2022-09-03T05:06:57;8.55;;;4.43;;
24547;SDS011;12713;51.624;4.924;2022-09-03T05:09:23;10.95;;;4.00;;
24547;SDS011;12713;51.624;4.924;2022-09-03T05:11:49;8.63;;;4.28;;
24547;SDS011;12713;51.624;4.924;2022-09-03T05:14:15;6.30;;;3.40;;
24547;SDS011;12713;51.624;4.924;2022-09-03T05:16:41;7.82;;;3.92;;
24547;SDS011;12713;51.624;4.924;2022-09-03T05:19:07;7.60;;;4.03;;
24547;SDS011;12713;51.624;4.924;2022-09-03T05:21:34;8.43;;;4.00;;
24547;SDS011;12713;51.624;4.924;2022-09-03T05:24:01;6.88;;;3.88;;
24547;SDS011;12713;51.624;4.924;2022-09-03T05:26:28;6.47;;;4.00;;
24547;SDS011;12713;51.624;4.924;2022-09-03T05:28:55;9.32;;;4.57;;
24547;SDS011;12713;51.624;4.924;2022-09-03T05:31:21;9.48;;;4.43;;
24547;SDS011;12713;51.624;4.924;2022-09-03T05:33:51;7.13;;;3.58;;
24547;SDS011;12713;51.624;4.924;2022-09-03T05:36:18;7.68;;;4.40;;
24547;SDS011;12713;51.624;4.924;2022-09-03T05:38:44;6.65;;;4.45;;
24547;SDS011;12713;51.624;4.924;2022-09-03T05:41:11;9.60;;;4.65;;
24547;SDS011;12713;51.624;4.924;2022-09-03T05:43:38;7.25;;;3.72;;
24547;SDS011;12713;51.624;4.924;2022-09-03T05:46:08;6.15;;;3.80;;
24547;SDS011;12713;51.624;4.924;2022-09-03T05:48:37;10.30;;;3.90;;
24547;SDS011;12713;51.624;4.924;2022-09-03T05:51:04;6.82;;;4.05;;
24547;SDS011;12713;51.624;4.924;2022-09-03T05:53:32;5.40;;;3.97;;
24547;SDS011;12713;51.624;4.924;2022-09-03T05:55:58;9.10;;;4.22;;
24547;SDS011;12713;51.624;4.924;2022-09-03T05:58:32;7.28;;;3.20;;
24547;SDS011;12713;51.624;4.924;2022-09-03T06:00:58;8.85;;;4.57;;
24547;SDS011;12713;51.624;4.924;2022-09-03T06:03:25;7.00;;;4.28;;
24547;SDS011;12713;51.624;4.924;2022-09-03T06:05:52;7.88;;;3.78;;
24547;SDS011;12713;51.624;4.924;2022-09-03T06:08:19;7.35;;;3.90;;
24547;SDS011;12713;51.624;4.924;2022-09-03T06:10:45;4.97;;;3.55;;
24547;SDS011;12713;51.624;4.924;2022-09-03T06:13:11;7.93;;;4.40;;
24547;SDS011;12713;51.624;4.924;2022-09-03T06:15:37;8.18;;;4.70;;
24547;SDS011;12713;51.624;4.924;2022-09-03T06:18:03;9.75;;;4.30;;
24547;SDS011;12713;51.624;4.924;2022-09-03T06:20:29;6.75;;;4.50;;
24547;SDS011;12713;51.624;4.924;2022-09-03T06:22:56;6.95;;;3.92;;
24547;SDS011;12713;51.624;4.924;2022-09-03T06:25:22;7.38;;;4.15;;
24547;SDS011;12713;51.624;4.924;2022-09-03T06:27:48;9.60;;;4.60;;
24547;SDS011;12713;51.624;4.924;2022-09-03T06:30:15;10.40;;;4.50;;
24547;SDS011;12713;51.624;4.924;2022-09-03T06:32:44;9.95;;;5.20;;
24547;SDS011;12713;51.624;4.924;2022-09-03T06:35:10;8.20;;;4.85;;
24547;SDS011;12713;51.624;4.924;2022-09-03T06:37:40;13.35;;;5.40;;
24547;SDS011;12713;51.624;4.924;2022-09-03T06:40:06;8.93;;;5.03;;
24547;SDS011;12713;51.624;4.924;2022-09-03T06:42:36;7.93;;;4.68;;
24547;SDS011;12713;51.624;4.924;2022-09-03T06:45:02;8.27;;;4.28;;
24547;SDS011;12713;51.624;4.924;2022-09-03T06:47:30;7.72;;;5.15;;
24547;SDS011;12713;51.624;4.924;2022-09-03T06:49:56;12.30;;;5.18;;
24547;SDS011;12713;51.624;4.924;2022-09-03T06:52:24;9.13;;;4.72;;
24547;SDS011;12713;51.624;4.924;2022-09-03T06:54:50;9.60;;;4.38;;
24547;SDS011;12713;51.624;4.924;2022-09-03T06:57:16;6.45;;;4.07;;
24547;SDS011;12713;51.624;4.924;2022-09-03T06:59:42;10.98;;;4.28;;
24547;SDS011;12713;51.624;4.924;2022-09-03T07:02:08;10.30;;;4.55;;
24547;SDS011;12713;51.624;4.924;2022-09-03T07:04:34;9.30;;;4.88;;
24547;SDS011;12713;51.624;4.924;2022-09-03T07:07:00;8.20;;;4.60;;
24547;SDS011;12713;51.624;4.924;2022-09-03T07:09:26;10.10;;;4.70;;
24547;SDS011;12713;51.624;4.924;2022-09-03T07:11:52;9.38;;;4.70;;
24547;SDS011;12713;51.624;4.924;2022-09-03T07:14:19;8.95;;;4.55;;
24547;SDS011;12713;51.624;4.924;2022-09-03T07:16:46;9.52;;;4.85;;
24547;SDS011;12713;51.624;4.924;2022-09-03T07:19:13;7.47;;;4.35;;
24547;SDS011;12713;51.624;4.924;2022-09-03T07:21:39;7.53;;;4.80;;
24547;SDS011;12713;51.624;4.924;2022-09-03T07:24:05;13.15;;;4.28;;
24547;SDS011;12713;51.624;4.924;2022-09-03T07:26:33;8.90;;;5.05;;
24547;SDS011;12713;51.624;4.924;2022-09-03T07:28:59;10.43;;;5.25;;
24547;SDS011;12713;51.624;4.924;2022-09-03T07:31:30;11.30;;;5.05;;
24547;SDS011;12713;51.624;4.924;2022-09-03T07:33:56;14.50;;;5.00;;
24547;SDS011;12713;51.624;4.924;2022-09-03T07:36:23;8.05;;;4.22;;
24547;SDS011;12713;51.624;4.924;2022-09-03T07:38:50;9.48;;;5.20;;
24547;SDS011;12713;51.624;4.924;2022-09-03T07:41:16;9.85;;;5.25;;
24547;SDS011;12713;51.624;4.924;2022-09-03T07:43:42;7.78;;;4.78;;
24547;SDS011;12713;51.624;4.924;2022-09-03T07:46:12;7.80;;;4.47;;
24547;SDS011;12713;51.624;4.924;2022-09-03T07:48:42;5.15;;;3.80;;
24547;SDS011;12713;51.624;4.924;2022-09-03T07:51:08;13.13;;;5.20;;
24547;SDS011;12713;51.624;4.924;2022-09-03T07:53:34;9.50;;;4.85;;
24547;SDS011;12713;51.624;4.924;2022-09-03T07:56:01;16.15;;;5.82;;
24547;SDS011;12713;51.624;4.924;2022-09-03T07:58:29;7.75;;;4.30;;
24547;SDS011;12713;51.624;4.924;2022-09-03T08:00:55;7.20;;;4.82;;
24547;SDS011;12713;51.624;4.924;2022-09-03T08:03:21;10.90;;;5.10;;
24547;SDS011;12713;51.624;4.924;2022-09-03T08:05:47;8.48;;;5.03;;
24547;SDS011;12713;51.624;4.924;2022-09-03T08:08:13;10.55;;;4.80;;
24547;SDS011;12713;51.624;4.924;2022-09-03T08:10:41;7.22;;;4.63;;
24547;SDS011;12713;51.624;4.924;2022-09-03T08:13:08;7.25;;;5.35;;
24547;SDS011;12713;51.624;4.924;2022-09-03T08:15:35;11.45;;;4.50;;
24547;SDS011;12713;51.624;4.924;2022-09-03T08:18:04;9.20;;;4.95;;
24547;SDS011;12713;51.624;4.924;2022-09-03T08:20:30;19.80;;;5.57;;
24547;SDS011;12713;51.624;4.924;2022-09-03T08:23:00;12.48;;;4.63;;
24547;SDS011;12713;51.624;4.924;2022-09-03T08:25:26;11.20;;;4.38;;
24547;SDS011;12713;51.624;4.924;2022-09-03T08:27:53;10.15;;;4.45;;
24547;SDS011;12713;51.624;4.924;2022-09-03T08:30:19;9.88;;;4.35;;
24547;SDS011;12713;51.624;4.924;2022-09-03T08:32:45;11.70;;;5.15;;
24547;SDS011;12713;51.624;4.924;2022-09-03T08:35:12;8.65;;;4.38;;
24547;SDS011;12713;51.624;4.924;2022-09-03T08:37:38;10.70;;;4.60;;
24547;SDS011;12713;51.624;4.924;2022-09-03T08:40:04;10.50;;;5.00;;
24547;SDS011;12713;51.624;4.924;2022-09-03T08:45:00;9.68;;;4.88;;
24547;SDS011;12713;51.624;4.924;2022-09-03T08:47:36;8.65;;;4.57;;
24547;SDS011;12713;51.624;4.924;2022-09-03T08:50:07;8.18;;;4.75;;
24547;SDS011;12713;51.624;4.924;2022-09-03T08:55:13;7.40;;;3.90;;
24547;SDS011;12713;51.624;4.924;2022-09-03T08:57:42;6.50;;;3.88;;
24547;SDS011;12713;51.624;4.924;2022-09-03T09:00:10;9.10;;;3.80;;
24547;SDS011;12713;51.624;4.924;2022-09-03T09:05:10;7.73;;;3.90;;
24547;SDS011;12713;51.624;4.924;2022-09-03T09:07:59;9.07;;;3.67;;
24547;SDS011;12713;51.624;4.924;2022-09-03T09:10:53;11.23;;;3.45;;
24547;SDS011;12713;51.624;4.924;2022-09-03T09:13:28;14.63;;;4.43;;
24547;SDS011;12713;51.624;4.924;2022-09-03T09:21:39;5.15;;;2.97;;
24547;SDS011;12713;51.624;4.924;2022-09-03T09:24:10;6.88;;;2.80;;
24547;SDS011;12713;51.624;4.924;2022-09-03T09:26:39;5.70;;;2.30;;
24547;SDS011;12713;51.624;4.924;2022-09-03T09:29:07;5.47;;;2.50;;
24547;SDS011;12713;51.624;4.924;2022-09-03T09:31:34;7.03;;;2.92;;
24547;SDS011;12713;51.624;4.924;2022-09-03T09:34:05;4.30;;;2.38;;
24547;SDS011;12713;51.624;4.924;2022-09-03T09:36:31;5.38;;;2.60;;
24547;SDS011;12713;51.624;4.924;2022-09-03T09:39:09;3.55;;;2.05;;
24547;SDS011;12713;51.624;4.924;2022-09-03T09:41:35;4.13;;;2.08;;
24547;SDS011;12713;51.624;4.924;2022-09-03T09:44:02;5.70;;;2.05;;
24547;SDS011;12713;51.624;4.924;2022-09-03T09:46:36;7.07;;;1.80;;
24547;SDS011;12713;51.624;4.924;2022-09-03T09:49:07;8.98;;;1.80;;
24547;SDS011;12713;51.624;4.924;2022-09-03T09:51:43;5.80;;;1.73;;
24547;SDS011;12713;51.624;4.924;2022-09-03T09:54:14;5.53;;;2.00;;
24547;SDS011;12713;51.624;4.924;2022-09-03T09:56:44;5.38;;;1.52;;
24547;SDS011;12713;51.624;4.924;2022-09-03T09:59:11;5.32;;;2.20;;
24547;SDS011;12713;51.624;4.924;2022-09-03T10:01:38;5.97;;;1.83;;
24547;SDS011;12713;51.624;4.924;2022-09-03T10:04:09;6.07;;;1.70;;
24547;SDS011;12713;51.624;4.924;2022-09-03T10:06:35;2.33;;;1.38;;
24547;SDS011;12713;51.624;4.924;2022-09-03T10:09:28;8.18;;;1.80;;
24547;SDS011;12713;51.624;4.924;2022-09-03T10:12:08;9.48;;;1.83;;
24547;SDS011;12713;51.624;4.924;2022-09-03T10:17:48;6.07;;;1.58;;
24547;SDS011;12713;51.624;4.924;2022-09-03T10:25:42;5.68;;;1.95;;
24547;SDS011;12713;51.624;4.924;2022-09-03T10:28:16;5.15;;;1.88;;
24547;SDS011;12713;51.624;4.924;2022-09-03T10:33:23;6.05;;;2.03;;
24547;SDS011;12713;51.624;4.924;2022-09-03T10:36:01;4.90;;;1.63;;
24547;SDS011;12713;51.624;4.924;2022-09-03T10:38:29;9.27;;;2.08;;
24547;SDS011;12713;51.624;4.924;2022-09-03T10:41:16;4.68;;;1.88;;
24547;SDS011;12713;51.624;4.924;2022-09-03T10:49:39;4.68;;;2.05;;
24547;SDS011;12713;51.624;4.924;2022-09-03T10:52:11;9.18;;;2.20;;
24547;SDS011;12713;51.624;4.924;2022-09-03T11:00:07;9.60;;;1.92;;
24547;SDS011;12713;51.624;4.924;2022-09-03T11:02:42;3.90;;;1.83;;
24547;SDS011;12713;51.624;4.924;2022-09-03T11:05:17;5.47;;;1.90;;
24547;SDS011;12713;51.624;4.924;2022-09-03T11:15:42;9.50;;;1.95;;
24547;SDS011;12713;51.624;4.924;2022-09-03T11:20:53;8.00;;;2.00;;
24547;SDS011;12713;51.624;4.924;2022-09-03T11:23:23;4.95;;;1.98;;
24547;SDS011;12713;51.624;4.924;2022-09-03T11:25:51;5.70;;;1.80;;
24547;SDS011;12713;51.624;4.924;2022-09-03T11:28:25;7.88;;;1.80;;
24547;SDS011;12713;51.624;4.924;2022-09-03T11:33:19;6.10;;;1.92;;
24547;SDS011;12713;51.624;4.924;2022-09-03T11:35:46;4.63;;;1.90;;
24547;SDS011;12713;51.624;4.924;2022-09-03T11:38:21;6.93;;;1.95;;
24547;SDS011;12713;51.624;4.924;2022-09-03T11:48:38;4.80;;;1.85;;
24547;SDS011;12713;51.624;4.924;2022-09-03T11:53:53;5.47;;;1.73;;
24547;SDS011;12713;51.624;4.924;2022-09-03T11:56:20;7.78;;;2.22;;
24547;SDS011;12713;51.624;4.924;2022-09-03T11:58:56;4.95;;;1.90;;
24547;SDS011;12713;51.624;4.924;2022-09-03T12:01:24;4.47;;;1.92;;
24547;SDS011;12713;51.624;4.924;2022-09-03T12:03:59;4.25;;;2.15;;
24547;SDS011;12713;51.624;4.924;2022-09-03T12:06:37;7.35;;;2.00;;
24547;SDS011;12713;51.624;4.924;2022-09-03T12:09:16;3.05;;;1.73;;
24547;SDS011;12713;51.624;4.924;2022-09-03T12:14:23;10.25;;;1.70;;
24547;SDS011;12713;51.624;4.924;2022-09-03T12:22:06;8.57;;;1.73;;
24547;SDS011;12713;51.624;4.924;2022-09-03T12:24:32;8.30;;;2.22;;
24547;SDS011;12713;51.624;4.924;2022-09-03T12:27:01;5.47;;;1.70;;
24547;SDS011;12713;51.624;4.924;2022-09-03T12:29:28;3.78;;;1.63;;
24547;SDS011;12713;51.624;4.924;2022-09-03T12:31:55;7.20;;;1.98;;
24547;SDS011;12713;51.624;4.924;2022-09-03T12:34:22;7.45;;;2.42;;
24547;SDS011;12713;51.624;4.924;2022-09-03T12:36:50;6.07;;;1.50;;
24547;SDS011;12713;51.624;4.924;2022-09-03T12:39:23;4.40;;;1.70;;
24547;SDS011;12713;51.624;4.924;2022-09-03T12:42:00;4.00;;;1.80;;
24547;SDS011;12713;51.624;4.924;2022-09-03T12:44:29;2.75;;;2.00;;
24547;SDS011;12713;51.624;4.924;2022-09-03T12:46:59;5.90;;;1.55;;
24547;SDS011;12713;51.624;4.924;2022-09-03T12:49:25;3.38;;;1.55;;
24547;SDS011;12713;51.624;4.924;2022-09-03T12:51:56;5.03;;;1.90;;
24547;SDS011;12713;51.624;4.924;2022-09-03T12:54:23;4.72;;;1.70;;
24547;SDS011;12713;51.624;4.924;2022-09-03T12:56:53;5.55;;;1.60;;
24547;SDS011;12713;51.624;4.924;2022-09-03T12:59:21;6.55;;;1.58;;
24547;SDS011;12713;51.624;4.924;2022-09-03T13:01:52;5.78;;;1.88;;
24547;SDS011;12713;51.624;4.924;2022-09-03T13:04:20;6.83;;;1.80;;
24547;SDS011;12713;51.624;4.924;2022-09-03T13:06:51;6.60;;;1.67;;
24547;SDS011;12713;51.624;4.924;2022-09-03T13:09:22;5.03;;;1.70;;
24547;SDS011;12713;51.624;4.924;2022-09-03T13:11:48;4.72;;;1.45;;
24547;SDS011;12713;51.624;4.924;2022-09-03T13:14:16;3.38;;;1.90;;
24547;SDS011;12713;51.624;4.924;2022-09-03T13:30:08;3.42;;;1.77;;
24547;SDS011;12713;51.624;4.924;2022-09-03T13:37:43;1.95;;;1.45;;
24547;SDS011;12713;51.624;4.924;2022-09-03T13:43:00;4.20;;;1.60;;
24547;SDS011;12713;51.624;4.924;2022-09-03T13:45:34;8.68;;;2.00;;
24547;SDS011;12713;51.624;4.924;2022-09-03T13:58:43;1.77;;;1.40;;
24547;SDS011;12713;51.624;4.924;2022-09-03T14:03:53;4.88;;;1.77;;
24547;SDS011;12713;51.624;4.924;2022-09-03T14:06:39;3.55;;;2.20;;
24547;SDS011;12713;51.624;4.924;2022-09-03T14:11:55;2.50;;;1.50;;
24547;SDS011;12713;51.624;4.924;2022-09-03T14:19:51;2.65;;;1.52;;
24547;SDS011;12713;51.624;4.924;2022-09-03T14:22:21;2.22;;;1.92;;
24547;SDS011;12713;51.624;4.924;2022-09-03T14:24:51;5.78;;;2.50;;
24547;SDS011;12713;51.624;4.924;2022-09-03T14:27:22;3.75;;;1.90;;
24547;SDS011;12713;51.624;4.924;2022-09-03T14:29:50;4.15;;;2.10;;
24547;SDS011;12713;51.624;4.924;2022-09-03T14:40:10;6.40;;;2.22;;
24547;SDS011;12713;51.624;4.924;2022-09-03T14:42:44;5.97;;;2.72;;
24547;SDS011;12713;51.624;4.924;2022-09-03T14:47:49;3.50;;;2.10;;
24547;SDS011;12713;51.624;4.924;2022-09-03T14:50:19;4.15;;;2.10;;
24547;SDS011;12713;51.624;4.924;2022-09-03T14:55:24;5.97;;;2.28;;
24547;SDS011;12713;51.624;4.924;2022-09-03T14:58:09;4.78;;;1.70;;
24547;SDS011;12713;51.624;4.924;2022-09-03T15:11:14;3.83;;;1.90;;
24547;SDS011;12713;51.624;4.924;2022-09-03T15:13:47;3.47;;;1.63;;
24547;SDS011;12713;51.624;4.924;2022-09-03T15:29:35;6.13;;;1.88;;
24547;SDS011;12713;51.624;4.924;2022-09-03T15:37:16;3.53;;;2.05;;
24547;SDS011;12713;51.624;4.924;2022-09-03T15:39:44;2.97;;;2.00;;
24547;SDS011;12713;51.624;4.924;2022-09-03T15:42:17;2.85;;;1.70;;
24547;SDS011;12713;51.624;4.924;2022-09-03T15:44:48;4.18;;;2.45;;
24547;SDS011;12713;51.624;4.924;2022-09-03T15:49:59;6.07;;;2.60;;
24547;SDS011;12713;51.624;4.924;2022-09-03T15:52:30;9.77;;;2.45;;
24547;SDS011;12713;51.624;4.924;2022-09-03T15:55:42;4.53;;;2.35;;
24547;SDS011;12713;51.624;4.924;2022-09-03T16:00:10;2.83;;;1.73;;
24547;SDS011;12713;51.624;4.924;2022-09-03T16:02:45;5.72;;;2.05;;
24547;SDS011;12713;51.624;4.924;2022-09-03T16:05:24;2.00;;;1.80;;
24547;SDS011;12713;51.624;4.924;2022-09-03T16:10:20;2.67;;;2.00;;
24547;SDS011;12713;51.624;4.924;2022-09-03T16:15:23;5.50;;;2.25;;
24547;SDS011;12713;51.624;4.924;2022-09-03T16:20:21;5.07;;;2.15;;
24547;SDS011;12713;51.624;4.924;2022-09-03T16:23:06;5.32;;;2.05;;
24547;SDS011;12713;51.624;4.924;2022-09-03T16:28:52;4.70;;;1.90;;
24547;SDS011;12713;51.624;4.924;2022-09-03T16:31:35;4.65;;;2.28;;
24547;SDS011;12713;51.624;4.924;2022-09-03T16:42:03;5.55;;;2.00;;
24547;SDS011;12713;51.624;4.924;2022-09-03T16:48:03;8.75;;;2.28;;
24547;SDS011;12713;51.624;4.924;2022-09-03T16:50:07;3.90;;;2.50;;
24547;SDS011;12713;51.624;4.924;2022-09-03T16:55:15;5.68;;;3.60;;
24547;SDS011;12713;51.624;4.924;2022-09-03T16:57:57;11.77;;;3.92;;
24547;SDS011;12713;51.624;4.924;2022-09-03T17:03:16;8.80;;;3.22;;
24547;SDS011;12713;51.624;4.924;2022-09-03T17:14:03;3.28;;;2.10;;
24547;SDS011;12713;51.624;4.924;2022-09-03T17:19:06;4.25;;;2.78;;
24547;SDS011;12713;51.624;4.924;2022-09-03T17:26:52;6.07;;;2.60;;
24547;SDS011;12713;51.624;4.924;2022-09-03T17:29:29;6.55;;;2.53;;
24547;SDS011;12713;51.624;4.924;2022-09-03T17:42:14;8.18;;;3.30;;
24547;SDS011;12713;51.624;4.924;2022-09-03T17:44:45;7.18;;;2.40;;
24547;SDS011;12713;51.624;4.924;2022-09-03T17:49:45;5.38;;;2.78;;
24547;SDS011;12713;51.624;4.924;2022-09-03T17:54:52;5.07;;;2.50;;
24547;SDS011;12713;51.624;4.924;2022-09-03T17:57:30;5.97;;;2.60;;
24547;SDS011;12713;51.624;4.924;2022-09-03T18:00:10;10.82;;;2.70;;
24547;SDS011;12713;51.624;4.924;2022-09-03T18:05:09;6.13;;;3.00;;
24547;SDS011;12713;51.624;4.924;2022-09-03T18:07:43;5.85;;;2.95;;
24547;SDS011;12713;51.624;4.924;2022-09-03T18:13:02;4.85;;;2.95;;
24547;SDS011;12713;51.624;4.924;2022-09-03T18:15:36;4.25;;;2.65;;
24547;SDS011;12713;51.624;4.924;2022-09-03T18:20:51;3.60;;;2.80;;
24547;SDS011;12713;51.624;4.924;2022-09-03T18:23:49;5.05;;;3.13;;
24547;SDS011;12713;51.624;4.924;2022-09-03T18:26:38;5.75;;;3.40;;
24547;SDS011;12713;51.624;4.924;2022-09-03T18:29:36;5.28;;;3.60;;
24547;SDS011;12713;51.624;4.924;2022-09-03T18:32:23;4.38;;;3.65;;
24547;SDS011;12713;51.624;4.924;2022-09-03T18:35:08;5.13;;;3.78;;
24547;SDS011;12713;51.624;4.924;2022-09-03T18:37:53;5.50;;;3.58;;
24547;SDS011;12713;51.624;4.924;2022-09-03T18:40:39;4.93;;;3.50;;
24547;SDS011;12713;51.624;4.924;2022-09-03T18:49:31;6.00;;;3.20;;
24547;SDS011;12713;51.624;4.924;2022-09-03T18:55:12;8.13;;;3.13;;
24547;SDS011;12713;51.624;4.924;2022-09-03T19:00:52;6.10;;;2.63;;
24547;SDS011;12713;51.624;4.924;2022-09-03T19:03:47;7.50;;;3.25;;
24547;SDS011;12713;51.624;4.924;2022-09-03T19:09:57;6.88;;;2.83;;
24547;SDS011;12713;51.624;4.924;2022-09-03T19:15:30;6.63;;;3.80;;
24547;SDS011;12713;51.624;4.924;2022-09-03T19:21:25;8.57;;;3.40;;
24547;SDS011;12713;51.624;4.924;2022-09-03T19:24:11;7.85;;;4.50;;
24547;SDS011;12713;51.624;4.924;2022-09-03T19:29:50;8.48;;;4.22;;
24547;SDS011;12713;51.624;4.924;2022-09-03T19:33:25;10.05;;;3.78;;
24547;SDS011;12713;51.624;4.924;2022-09-03T19:41:36;6.90;;;4.00;;
24547;SDS011;12713;51.624;4.924;2022-09-03T19:44:41;5.35;;;3.80;;
24547;SDS011;12713;51.624;4.924;2022-09-03T19:47:36;9.18;;;3.45;;
24547;SDS011;12713;51.624;4.924;2022-09-03T19:50:25;6.45;;;3.88;;
24547;SDS011;12713;51.624;4.924;2022-09-03T19:53:14;4.68;;;3.55;;
24547;SDS011;12713;51.624;4.924;2022-09-03T19:56:05;6.00;;;3.75;;
24547;SDS011;12713;51.624;4.924;2022-09-03T19:58:57;4.18;;;3.50;;
24547;SDS011;12713;51.624;4.924;2022-09-03T20:01:43;5.63;;;3.33;;
24547;SDS011;12713;51.624;4.924;2022-09-03T20:04:30;7.50;;;3.70;;
24547;SDS011;12713;51.624;4.924;2022-09-03T20:07:15;5.85;;;3.70;;
24547;SDS011;12713;51.624;4.924;2022-09-03T20:10:01;5.47;;;3.75;;
24547;SDS011;12713;51.624;4.924;2022-09-03T20:13:04;4.80;;;3.35;;
24547;SDS011;12713;51.624;4.924;2022-09-03T20:41:22;5.05;;;3.15;;